createdAt,value
2023-04-25T00:01:50.238Z,86.31
2023-04-25T00:06:43.520Z,87.19
2023-04-25T00:11:38.087Z,87.29
2023-04-25T00:16:34.476Z,87.00
2023-04-25T00:21:27.796Z,86.38
2023-04-25T00:26:22.007Z,86.38
2023-04-25T00:31:16.645Z,86.18
2023-04-25T00:36:10.739Z,85.86
2023-04-25T00:41:03.903Z,86.19
2023-04-25T00:45:58.751Z,86.96
2023-04-25T00:50:55.253Z,87.37
2023-04-25T00:55:49.082Z,86.96
2023-04-25T01:00:43.205Z,86.83
2023-04-25T01:05:36.411Z,85.93
2023-04-25T01:10:31.063Z,86.48
2023-04-25T01:15:24.399Z,86.09
2023-04-25T01:20:18.128Z,85.07
2023-04-25T01:25:13.147Z,85.33
2023-04-25T01:30:07.842Z,86.05
2023-04-25T01:35:03.328Z,84.94
2023-04-25T01:39:56.649Z,86.00
2023-04-25T01:44:51.189Z,87.16
2023-04-25T01:49:44.328Z,86.73
2023-04-25T01:54:37.500Z,85.33
2023-04-25T01:59:31.035Z,86.16
2023-04-25T02:04:35.415Z,86.35
2023-04-25T02:09:29.470Z,85.16
2023-04-25T02:14:23.888Z,85.62
2023-04-25T02:19:28.304Z,86.92
2023-04-25T02:24:23.028Z,87.39
2023-04-25T02:29:16.346Z,85.92
2023-04-25T02:34:09.621Z,84.66
2023-04-25T02:39:04.992Z,83.94
2023-04-25T02:43:59.569Z,83.60
2023-04-25T02:48:52.797Z,82.83
2023-04-25T02:53:46.532Z,83.52
2023-04-25T02:58:39.855Z,84.87
2023-04-25T03:03:34.514Z,85.36
2023-04-25T03:08:33.204Z,85.06
2023-04-25T03:13:28.533Z,85.93
2023-04-25T03:18:21.868Z,87.15
2023-04-25T03:23:16.538Z,87.25
2023-04-25T03:28:09.739Z,87.10
2023-04-25T03:33:05.872Z,87.37
2023-04-25T03:37:59.092Z,86.49
2023-04-25T03:42:58.448Z,83.97
2023-04-25T03:47:52.014Z,80.56
2023-04-25T03:52:45.669Z,79.47
2023-04-25T03:57:38.943Z,79.22
2023-04-25T04:02:34.371Z,78.89
2023-04-25T04:07:27.995Z,78.67
2023-04-25T04:12:25.648Z,78.56
2023-04-25T04:17:19.126Z,77.83
2023-04-25T04:22:14.516Z,79.28
2023-04-25T04:27:08.237Z,80.12
2023-04-25T04:32:35.710Z,79.13
2023-04-25T04:37:32.014Z,79.67
2023-04-25T04:42:26.642Z,79.78
2023-04-25T04:47:34.137Z,80.91
2023-04-25T04:52:43.865Z,82.01
2023-04-25T04:58:09.527Z,81.29
2023-04-25T05:03:14.882Z,82.08
2023-04-25T05:08:29.593Z,82.87
2023-04-25T05:13:38.413Z,83.72
2023-04-25T05:18:44.794Z,84.45
2023-04-25T05:24:07.450Z,86.90
2023-04-25T05:29:39.307Z,86.82
2023-04-25T05:34:53.249Z,86.90
2023-04-25T05:39:52.830Z,87.53
2023-04-25T05:45:18.744Z,88.22
2023-04-25T05:50:40.955Z,87.14
2023-04-25T05:55:51.551Z,89.25
2023-04-25T06:01:02.776Z,91.31
2023-04-25T06:05:56.201Z,92.59
2023-04-25T06:10:49.807Z,93.37
2023-04-25T06:15:44.348Z,94.16
2023-04-25T06:20:38.701Z,94.32
2023-04-25T06:25:32.017Z,94.07
2023-04-25T06:30:26.917Z,94.85
2023-04-25T06:35:27.159Z,95.32
2023-04-25T06:40:20.582Z,96.56
2023-04-25T06:45:13.882Z,97.32
2023-04-25T06:50:09.080Z,97.15
2023-04-25T06:55:06.112Z,98.17
2023-04-25T07:00:26.261Z,98.14
2023-04-25T07:05:20.358Z,97.12
2023-04-25T07:10:15.271Z,97.98
2023-04-25T07:15:11.280Z,98.78
2023-04-25T07:20:10.122Z,100.00
2023-04-25T07:25:05.300Z,99.35
2023-04-25T07:30:00.231Z,100.00
2023-04-25T07:34:53.422Z,99.33
2023-04-25T07:39:47.954Z,98.67
2023-04-25T07:44:41.328Z,99.74
2023-04-25T07:49:38.844Z,97.81
2023-04-25T07:54:32.150Z,98.72
2023-04-25T07:59:31.988Z,99.73
2023-04-25T08:04:28.027Z,96.36
2023-04-25T08:09:28.096Z,96.65
2023-04-25T08:14:22.696Z,97.67
2023-04-25T08:19:15.978Z,96.70
2023-04-25T08:24:10.084Z,94.36
2023-04-25T08:29:07.375Z,90.67
2023-04-25T08:34:06.079Z,88.94
2023-04-25T08:39:08.269Z,87.99
2023-04-25T08:44:13.692Z,88.76
2023-04-25T08:49:06.847Z,91.43
2023-04-25T08:54:34.653Z,89.04
2023-04-25T08:59:26.338Z,90.79
2023-04-25T09:04:20.361Z,88.91
2023-04-25T09:09:13.595Z,87.41
2023-04-25T09:14:18.179Z,91.43
2023-04-25T09:19:38.942Z,85.07
2023-04-25T09:24:35.847Z,83.55
2023-04-25T09:29:33.280Z,87.91
2023-04-25T09:34:29.723Z,83.35
2023-04-25T09:39:24.358Z,76.44
2023-04-25T09:44:26.435Z,70.95
2023-04-25T09:49:22.792Z,65.08
2023-04-25T09:54:43.309Z,64.93
2023-04-25T09:59:54.063Z,64.24
2023-04-25T10:04:52.792Z,65.79
2023-04-25T10:09:54.467Z,62.83
2023-04-25T10:14:49.203Z,67.04
2023-04-25T10:19:42.540Z,58.47
2023-04-25T10:24:37.689Z,54.59
2023-04-25T10:29:32.454Z,52.50
2023-04-25T10:34:41.123Z,50.24
2023-04-25T10:39:35.414Z,49.68
2023-04-25T10:44:30.742Z,51.60
2023-04-25T10:49:37.512Z,54.22
2023-04-25T10:54:32.890Z,55.83
2023-04-25T10:59:27.772Z,56.31
2023-04-25T11:04:24.975Z,59.58
2023-04-25T11:09:20.011Z,60.70
2023-04-25T11:14:13.264Z,59.86
2023-04-25T11:19:06.507Z,60.77
2023-04-25T11:23:59.748Z,60.66
2023-04-25T11:28:59.178Z,59.31
2023-04-25T11:33:52.949Z,61.88
2023-04-25T11:38:46.240Z,62.67
2023-04-25T11:43:40.896Z,64.88
2023-04-25T11:48:41.081Z,69.96
2023-04-25T11:53:43.065Z,73.67
2023-04-25T11:58:56.512Z,78.40
2023-04-25T12:03:51.253Z,79.17
2023-04-25T12:09:02.962Z,82.94
2023-04-25T12:13:56.152Z,82.43
2023-04-25T12:18:53.966Z,77.09
2023-04-25T12:23:47.194Z,76.68
2023-04-25T12:28:40.442Z,75.77
2023-04-25T12:33:35.414Z,74.31
2023-04-25T12:38:31.951Z,73.70
2023-04-25T12:43:25.621Z,72.28
2023-04-25T12:48:20.919Z,62.91
2023-04-25T12:53:14.073Z,57.68
2023-04-25T12:58:09.328Z,60.01
2023-04-25T13:03:05.416Z,62.87
2023-04-25T13:07:58.852Z,56.61
2023-04-25T13:12:56.641Z,56.66
2023-04-25T13:17:51.519Z,45.44
2023-04-25T13:22:48.074Z,46.86
2023-04-25T13:27:47.497Z,39.96
2023-04-25T13:32:42.220Z,38.00
2023-04-25T13:37:37.118Z,36.04
2023-04-25T13:42:33.367Z,37.93
2023-04-25T13:47:27.789Z,43.62
2023-04-25T13:52:25.194Z,49.25
2023-04-25T13:57:20.974Z,53.67
2023-04-25T14:02:14.653Z,53.59
2023-04-25T14:07:08.214Z,56.41
2023-04-25T14:12:01.722Z,53.25
2023-04-25T14:16:58.151Z,53.43
2023-04-25T14:21:51.404Z,52.87
2023-04-25T14:26:45.641Z,52.25
2023-04-25T14:31:38.862Z,55.35
2023-04-25T14:36:34.135Z,58.00
2023-04-25T14:41:28.182Z,57.65
2023-04-25T14:46:21.901Z,59.74
2023-04-25T14:51:15.376Z,59.03
2023-04-25T14:56:10.021Z,57.30
2023-04-25T15:01:07.872Z,64.82
2023-04-25T15:06:11.784Z,70.12
2023-04-25T15:11:05.096Z,75.52
2023-04-25T15:15:59.894Z,80.38
2023-04-25T15:20:54.138Z,84.28
2023-04-25T15:25:49.913Z,86.90
2023-04-25T15:30:44.432Z,90.10
2023-04-25T15:35:39.549Z,91.39
2023-04-25T15:40:32.805Z,92.41
2023-04-25T15:45:27.076Z,92.98
2023-04-25T15:50:21.302Z,93.07
2023-04-25T15:55:19.258Z,94.28
2023-04-25T16:00:13.765Z,95.08
2023-04-25T16:05:07.506Z,95.84
2023-04-25T16:10:00.968Z,95.84
2023-04-25T16:14:56.014Z,97.81
2023-04-25T16:19:53.316Z,97.08
2023-04-25T16:24:49.329Z,95.70
2023-04-25T16:29:42.866Z,97.38
2023-04-25T16:34:37.626Z,95.58
2023-04-25T16:39:30.880Z,97.26
2023-04-25T16:44:26.911Z,96.06
2023-04-25T16:49:20.181Z,96.83
2023-04-25T16:54:16.112Z,96.27
2023-04-25T17:04:19.216Z,94.63
2023-04-25T17:09:12.420Z,94.58
2023-04-25T17:14:07.201Z,94.34
2023-04-25T17:19:00.280Z,94.64
2023-04-25T17:23:54.162Z,94.65
2023-04-25T17:28:49.837Z,95.35
2023-04-25T17:33:44.578Z,95.00
2023-04-25T17:38:39.119Z,96.25
2023-04-25T17:43:33.123Z,96.50
2023-04-25T17:48:27.704Z,97.91
2023-04-25T17:53:22.295Z,97.91
2023-04-25T17:58:15.571Z,98.17
2023-04-25T18:03:08.784Z,97.59
2023-04-25T18:08:02.116Z,96.76
2023-04-25T18:12:57.265Z,96.59
2023-04-25T18:17:53.048Z,95.90
2023-04-25T18:22:48.854Z,94.74
2023-04-25T18:27:42.758Z,94.02
2023-04-25T18:32:37.650Z,93.74
2023-04-25T18:37:31.001Z,93.45
2023-04-25T18:42:24.214Z,92.74
2023-04-25T18:47:17.996Z,92.32
2023-04-25T18:52:15.344Z,92.08
2023-04-25T18:57:09.501Z,91.65
2023-04-25T19:02:03.234Z,91.23
2023-04-25T19:06:59.841Z,90.79
2023-04-25T19:11:54.353Z,90.51
2023-04-25T19:16:47.661Z,89.87
2023-04-25T19:21:44.025Z,88.50
2023-04-25T19:26:39.023Z,87.90
2023-04-25T19:31:36.342Z,88.93
2023-04-25T19:36:29.625Z,90.39
2023-04-25T19:41:22.989Z,92.10
2023-04-25T19:46:16.622Z,93.85
2023-04-25T19:51:11.367Z,94.50
2023-04-25T19:56:05.052Z,95.09
2023-04-25T20:00:58.402Z,95.23
2023-04-25T20:05:51.556Z,95.59
2023-04-25T20:10:46.155Z,95.16
2023-04-25T20:15:39.542Z,95.22
2023-04-25T20:20:33.424Z,95.10
2023-04-25T20:25:26.720Z,95.56
2023-04-25T20:30:21.583Z,94.89
2023-04-25T20:35:15.193Z,93.57
2023-04-25T20:40:09.895Z,92.32
2023-04-25T20:45:07.540Z,92.12
2023-04-25T20:50:04.104Z,91.33
2023-04-25T20:54:59.463Z,90.49
2023-04-25T20:59:52.827Z,89.24
2023-04-25T21:04:47.805Z,87.85
2023-04-25T21:09:45.716Z,87.23
2023-04-25T21:14:39.145Z,86.18
2023-04-25T21:19:35.380Z,85.74
2023-04-25T21:24:28.690Z,85.13
2023-04-25T21:29:23.424Z,84.89
2023-04-25T21:34:16.815Z,84.58
2023-04-25T21:39:10.892Z,83.65
2023-04-25T21:44:04.283Z,83.65
2023-04-25T21:48:59.078Z,83.60
2023-04-25T21:53:52.409Z,84.06
2023-04-25T21:58:45.686Z,82.70
2023-04-25T22:03:39.007Z,82.39
2023-04-25T22:08:33.779Z,81.97
2023-04-25T22:13:28.595Z,82.14
2023-04-25T22:18:22.304Z,81.57
2023-04-25T22:23:15.646Z,82.38
2023-04-25T22:28:10.836Z,82.21
2023-04-25T22:33:04.097Z,82.67
2023-04-25T22:37:57.340Z,82.34
2023-04-25T22:42:50.477Z,82.37
2023-04-25T22:47:45.106Z,82.17
2023-04-25T22:52:38.254Z,82.14
2023-04-25T22:57:31.494Z,82.14
2023-04-25T23:02:25.961Z,82.61
2023-04-25T23:07:20.866Z,83.53
2023-04-25T23:12:13.974Z,83.68
2023-04-25T23:17:07.825Z,82.95
2023-04-25T23:22:01.103Z,82.13
2023-04-25T23:26:55.878Z,81.42
2023-04-25T23:31:48.931Z,80.64
2023-04-25T23:36:42.054Z,79.79
2023-04-25T23:41:35.549Z,78.72
2023-04-25T23:46:31.171Z,78.98
2023-04-25T23:51:25.344Z,77.79
2023-04-25T23:56:18.454Z,77.24
